createdAt,value
2019-05-10T00:00:57.809Z,1.40
2019-05-10T00:03:42.920Z,1.75
2019-05-10T00:06:29.014Z,1.80
2019-05-10T00:08:55.607Z,1.82
2019-05-10T00:11:29.693Z,2.55
2019-05-10T00:14:14.675Z,2.25
2019-05-10T00:16:41.734Z,1.87
2019-05-10T00:19:08.542Z,2.10
2019-05-10T00:21:35.504Z,2.00
2019-05-10T00:24:02.382Z,1.80
2019-05-10T00:26:29.239Z,2.20
2019-05-10T00:28:56.030Z,2.62
2019-05-10T00:31:23.988Z,1.82
2019-05-10T00:33:50.698Z,1.80
2019-05-10T00:36:17.832Z,1.42
2019-05-10T00:38:44.684Z,1.40
2019-05-10T00:41:11.456Z,1.50
2019-05-10T00:43:38.119Z,1.52
2019-05-10T00:46:05.883Z,1.52
2019-05-10T00:48:32.795Z,1.30
2019-05-10T00:50:59.579Z,1.67
2019-05-10T00:53:26.485Z,1.27
2019-05-10T00:55:53.162Z,1.20
2019-05-10T00:58:19.869Z,1.90
2019-05-10T01:00:46.520Z,1.05
2019-05-10T01:03:13.304Z,1.45
2019-05-10T01:05:40.122Z,1.50
2019-05-10T01:08:06.783Z,1.32
2019-05-10T01:10:33.640Z,1.00
2019-05-10T01:13:00.358Z,1.10
2019-05-10T01:15:27.100Z,0.95
2019-05-10T01:17:53.760Z,1.30
2019-05-10T01:20:20.626Z,1.30
2019-05-10T01:22:47.136Z,1.20
2019-05-10T01:25:13.896Z,1.20
2019-05-10T01:27:40.674Z,1.32
2019-05-10T01:30:08.122Z,1.80
2019-05-10T01:32:35.063Z,1.40
2019-05-10T01:35:03.141Z,1.40
2019-05-10T01:37:29.884Z,1.20
2019-05-10T01:39:56.646Z,1.37
2019-05-10T01:42:23.370Z,1.37
2019-05-10T01:44:50.146Z,1.27
2019-05-10T01:47:16.783Z,1.47
2019-05-10T01:49:43.438Z,1.42
2019-05-10T01:52:10.156Z,0.82
2019-05-10T01:54:38.008Z,1.00
2019-05-10T01:57:04.796Z,1.27
2019-05-10T01:59:31.444Z,1.05
2019-05-10T02:01:58.230Z,1.07
2019-05-10T02:04:24.981Z,1.10
2019-05-10T02:06:51.782Z,1.22
2019-05-10T02:09:18.534Z,0.93
2019-05-10T02:11:46.377Z,1.50
2019-05-10T02:14:13.113Z,1.00
2019-05-10T02:16:39.868Z,1.52
2019-05-10T02:19:06.627Z,1.20
2019-05-10T02:21:33.374Z,0.90
2019-05-10T02:24:00.102Z,1.00
2019-05-10T02:26:26.776Z,1.00
2019-05-10T02:28:53.618Z,0.90
2019-05-10T02:31:21.645Z,1.00
2019-05-10T02:33:48.839Z,1.62
2019-05-10T02:36:15.488Z,1.77
2019-05-10T02:38:42.237Z,1.60
2019-05-10T02:41:08.914Z,1.30
2019-05-10T02:43:35.568Z,1.05
2019-05-10T02:46:02.339Z,1.20
2019-05-10T02:48:30.204Z,1.22
2019-05-10T02:50:56.850Z,1.25
2019-05-10T02:53:23.496Z,1.00
2019-05-10T02:55:51.060Z,0.80
2019-05-10T02:58:19.748Z,1.00
2019-05-10T03:00:48.634Z,1.30
2019-05-10T03:03:16.320Z,1.00
2019-05-10T03:05:48.223Z,1.20
2019-05-10T03:08:13.337Z,1.47
2019-05-10T03:10:43.756Z,1.20
2019-05-10T03:13:14.226Z,1.62
2019-05-10T03:15:43.020Z,1.07
2019-05-10T03:18:09.780Z,1.00
2019-05-10T03:20:36.778Z,1.17
2019-05-10T03:23:07.080Z,1.10
2019-05-10T03:25:33.836Z,1.27
2019-05-10T03:28:00.742Z,1.20
2019-05-10T03:30:27.618Z,1.10
2019-05-10T03:32:54.376Z,1.10
2019-05-10T03:35:21.243Z,0.95
2019-05-10T03:37:48.363Z,1.37
2019-05-10T03:40:15.209Z,1.35
2019-05-10T03:42:42.717Z,1.45
2019-05-10T03:45:10.713Z,1.60
2019-05-10T03:47:37.382Z,1.27
2019-05-10T03:50:05.458Z,1.40
2019-05-10T03:52:32.324Z,1.70
2019-05-10T03:54:59.100Z,1.50
2019-05-10T03:57:25.918Z,1.55
2019-05-10T03:59:52.681Z,1.52
2019-05-10T04:02:19.440Z,1.50
2019-05-10T04:04:46.302Z,1.70
2019-05-10T04:07:13.214Z,1.30
2019-05-10T04:09:39.978Z,1.47
2019-05-10T04:12:06.736Z,1.75
2019-05-10T04:14:33.524Z,1.62
2019-05-10T04:17:00.204Z,1.15
2019-05-10T04:19:26.884Z,1.80
2019-05-10T04:21:53.723Z,1.98
2019-05-10T04:24:20.449Z,1.50
2019-05-10T04:26:47.235Z,1.60
2019-05-10T04:29:13.932Z,2.02
2019-05-10T04:31:41.032Z,1.35
2019-05-10T04:34:07.932Z,1.05
2019-05-10T04:36:34.627Z,1.52
2019-05-10T04:39:01.356Z,4.78
2019-05-10T04:41:29.236Z,3.95
2019-05-10T04:43:55.986Z,4.30
2019-05-10T04:46:22.809Z,3.92
2019-05-10T04:48:49.669Z,3.90
2019-05-10T04:51:16.539Z,3.65
2019-05-10T04:53:43.284Z,2.50
2019-05-10T04:56:10.221Z,2.67
2019-05-10T04:58:36.885Z,2.83
2019-05-10T05:01:03.734Z,2.40
2019-05-10T05:03:30.624Z,1.70
2019-05-10T05:05:57.487Z,1.95
2019-05-10T05:08:24.230Z,2.10
2019-05-10T05:10:52.046Z,1.85
2019-05-10T05:13:18.785Z,1.77
2019-05-10T05:15:45.463Z,1.70
2019-05-10T05:18:12.367Z,1.45
2019-05-10T05:20:40.457Z,1.40
2019-05-10T05:23:07.110Z,1.57
2019-05-10T05:25:35.320Z,1.62
2019-05-10T05:28:08.107Z,1.70
2019-05-10T05:30:31.302Z,1.60
2019-05-10T05:32:58.191Z,1.67
2019-05-10T05:35:25.061Z,1.62
2019-05-10T05:37:51.915Z,1.40
2019-05-10T05:40:18.597Z,1.30
2019-05-10T05:42:45.375Z,1.70
2019-05-10T05:45:12.033Z,1.82
2019-05-10T05:47:42.150Z,1.52
2019-05-10T05:50:07.888Z,1.40
2019-05-10T05:52:34.541Z,1.77
2019-05-10T05:55:01.223Z,1.77
2019-05-10T05:57:29.572Z,1.50
2019-05-10T05:59:57.553Z,1.30
2019-05-10T06:02:25.047Z,1.77
2019-05-10T06:04:51.682Z,2.05
2019-05-10T06:07:18.557Z,1.27
2019-05-10T06:09:45.259Z,1.30
2019-05-10T06:12:12.676Z,1.50
2019-05-10T06:14:43.142Z,1.30
2019-05-10T06:17:08.926Z,1.30
2019-05-10T06:19:35.593Z,1.32
2019-05-10T06:22:04.686Z,1.40
2019-05-10T06:24:34.189Z,1.47
2019-05-10T06:27:03.360Z,1.40
2019-05-10T06:29:28.402Z,1.47
2019-05-10T06:31:58.665Z,1.40
2019-05-10T06:34:23.685Z,1.50
2019-05-10T06:36:50.378Z,1.50
2019-05-10T06:39:17.313Z,1.30
2019-05-10T06:41:44.226Z,1.22
2019-05-10T06:44:11.028Z,0.98
2019-05-10T06:46:37.678Z,1.35
2019-05-10T06:49:08.356Z,1.20
2019-05-10T06:51:34.763Z,1.65
2019-05-10T06:54:02.830Z,1.42
2019-05-10T06:56:30.571Z,1.80
2019-05-10T06:59:11.213Z,2.02
2019-05-10T07:01:25.896Z,2.60
2019-05-10T07:03:53.698Z,2.60
2019-05-10T07:06:20.352Z,2.90
2019-05-10T07:08:51.844Z,2.10
2019-05-10T07:11:15.889Z,2.00
2019-05-10T07:13:47.255Z,2.37
2019-05-10T07:16:15.013Z,2.20
2019-05-10T07:18:39.681Z,2.12
2019-05-10T07:21:08.578Z,2.40
2019-05-10T07:23:39.020Z,2.15
2019-05-10T07:26:03.426Z,1.98
2019-05-10T07:28:30.287Z,2.10
2019-05-10T07:30:57.204Z,1.70
2019-05-10T07:33:23.955Z,1.50
2019-05-10T07:35:50.726Z,1.42
2019-05-10T07:38:17.497Z,1.20
2019-05-10T07:40:44.249Z,0.90
2019-05-10T07:43:10.973Z,0.50
2019-05-10T07:45:37.658Z,0.55
2019-05-10T07:48:08.129Z,0.50
2019-05-10T07:50:33.913Z,0.33
2019-05-10T07:53:00.694Z,0.37
2019-05-10T07:55:29.743Z,0.37
2019-05-10T07:57:59.045Z,0.20
2019-05-10T08:00:25.450Z,0.30
2019-05-10T08:03:00.823Z,0.30
2019-05-10T08:05:20.735Z,0.17
2019-05-10T08:07:49.454Z,0.20
2019-05-10T08:10:16.000Z,0.30
2019-05-10T08:12:45.626Z,1.60
2019-05-10T08:15:11.476Z,2.25
2019-05-10T08:17:43.307Z,1.80
2019-05-10T08:20:09.021Z,2.25
2019-05-10T08:22:41.326Z,2.58
2019-05-10T08:25:06.304Z,2.02
2019-05-10T08:27:33.094Z,1.50
2019-05-10T08:32:32.211Z,0.75
2019-05-10T08:34:57.438Z,1.12
2019-05-10T08:37:33.109Z,0.95
2019-05-10T08:39:55.972Z,0.65
2019-05-10T08:42:38.010Z,0.60
2019-05-10T08:44:54.190Z,0.80
2019-05-10T08:47:25.023Z,0.53
2019-05-10T08:50:00.187Z,0.70
2019-05-10T08:52:19.316Z,0.60
2019-05-10T08:54:44.421Z,0.60
2019-05-10T09:00:05.277Z,0.60
2019-05-10T09:02:29.292Z,0.50
2019-05-10T09:04:54.452Z,0.40
2019-05-10T09:07:23.182Z,0.50
2019-05-10T09:09:50.231Z,0.60
2019-05-10T09:12:19.144Z,0.50
2019-05-10T09:14:48.589Z,0.57
2019-05-10T09:17:22.631Z,0.50
2019-05-10T09:19:44.209Z,0.30
2019-05-10T09:22:12.945Z,0.35
2019-05-10T09:24:43.219Z,0.40
2019-05-10T09:27:08.296Z,0.50
2019-05-10T09:29:37.189Z,0.60
2019-05-10T09:32:06.159Z,0.40
2019-05-10T09:34:32.567Z,0.30
2019-05-10T09:36:59.395Z,0.68
2019-05-10T09:39:26.044Z,0.20
2019-05-10T09:41:53.012Z,0.47
2019-05-10T09:44:19.825Z,0.20
2019-05-10T09:46:46.501Z,0.45
2019-05-10T09:49:17.769Z,0.40
2019-05-10T09:51:42.396Z,0.25
2019-05-10T09:54:09.218Z,0.23
2019-05-10T09:56:42.061Z,0.30
2019-05-10T09:59:04.671Z,0.28
2019-05-10T10:01:37.135Z,0.40
2019-05-10T10:04:02.804Z,0.20
2019-05-10T10:14:18.023Z,0.30
2019-05-10T10:16:48.862Z,0.17
2019-05-10T10:19:13.474Z,0.55
2019-05-10T10:21:40.249Z,0.20
2019-05-10T10:24:15.504Z,0.70
2019-05-10T10:26:37.918Z,0.90
2019-05-10T10:29:07.123Z,0.20
2019-05-10T10:31:33.816Z,0.40
2019-05-10T10:34:03.087Z,0.20
2019-05-10T10:36:30.304Z,0.40
2019-05-10T10:38:57.111Z,0.23
2019-05-10T10:41:26.363Z,0.30
2019-05-10T10:43:53.452Z,0.20
2019-05-10T10:46:20.297Z,0.50
2019-05-10T10:48:49.036Z,0.30
2019-05-10T10:51:18.044Z,0.23
2019-05-10T10:53:46.875Z,0.30
2019-05-10T10:56:12.972Z,0.20
2019-05-10T10:58:39.790Z,0.20
2019-05-10T11:01:10.791Z,0.30
2019-05-10T11:03:35.680Z,0.20
2019-05-10T11:06:02.588Z,0.20
2019-05-10T11:08:32.920Z,0.25
2019-05-10T11:11:00.412Z,0.10
2019-05-10T11:13:41.469Z,0.20
2019-05-10T11:15:58.835Z,0.33
2019-05-10T11:18:23.975Z,0.20
2019-05-10T11:20:53.869Z,0.62
2019-05-10T11:23:24.611Z,0.25
2019-05-10T11:25:54.749Z,0.28
2019-05-10T11:28:16.985Z,0.50
2019-05-10T11:30:43.792Z,0.30
2019-05-10T11:33:23.844Z,0.40
2019-05-10T11:35:41.524Z,0.30
2019-05-10T11:38:12.936Z,0.80
2019-05-10T11:40:36.453Z,0.37
2019-05-10T11:43:03.442Z,0.40
2019-05-10T11:45:32.248Z,0.40
2019-05-10T11:48:02.048Z,0.40
2019-05-10T11:50:34.890Z,0.28
2019-05-10T11:52:57.909Z,0.35
2019-05-10T11:55:24.770Z,0.70
2019-05-10T11:58:01.976Z,0.35
2019-05-10T12:00:29.148Z,0.37
2019-05-10T12:05:22.770Z,0.23
2019-05-10T12:07:47.016Z,0.20
2019-05-10T12:12:59.752Z,0.20
2019-05-10T12:15:13.771Z,0.57
2019-05-10T12:17:43.815Z,0.40
2019-05-10T12:20:16.334Z,0.33
2019-05-10T12:22:40.440Z,0.30
2019-05-10T12:25:31.959Z,0.30
2019-05-10T12:26:04.653Z,0.30
2019-05-10T12:26:05.227Z,0.23
2019-05-10T12:27:45.258Z,0.35
2019-05-10T12:30:05.191Z,0.20
2019-05-10T12:32:33.458Z,0.40
2019-05-10T12:35:01.444Z,0.50
2019-05-10T12:37:30.679Z,0.30
2019-05-10T12:40:06.227Z,0.33
2019-05-10T12:42:25.770Z,0.40
2019-05-10T12:44:55.427Z,0.28
2019-05-10T12:47:21.470Z,0.40
2019-05-10T12:49:48.310Z,0.30
2019-05-10T12:52:22.043Z,0.20
2019-05-10T12:54:47.405Z,0.30
2019-05-10T12:57:14.075Z,0.30
2019-05-10T12:59:40.818Z,0.42
2019-05-10T13:02:10.749Z,0.72
2019-05-10T13:04:40.628Z,0.50
2019-05-10T13:07:04.923Z,0.53
2019-05-10T13:09:39.900Z,0.30
2019-05-10T13:12:06.002Z,0.30
2019-05-10T13:14:29.357Z,0.37
2019-05-10T13:16:56.490Z,0.17
2019-05-10T13:19:23.150Z,0.20
2019-05-10T13:21:53.809Z,0.17
2019-05-10T13:24:18.714Z,0.25
2019-05-10T13:26:45.600Z,0.20
2019-05-10T13:29:12.394Z,0.20
2019-05-10T13:31:42.939Z,0.17
2019-05-10T13:34:07.834Z,0.30
2019-05-10T13:36:37.267Z,0.10
2019-05-10T13:39:05.266Z,0.20
2019-05-10T13:41:32.139Z,0.28
2019-05-10T13:44:04.365Z,0.17
2019-05-10T13:46:27.708Z,0.30
2019-05-10T13:48:54.555Z,0.30
2019-05-10T13:51:21.312Z,0.30
2019-05-10T13:53:48.332Z,0.25
2019-05-10T13:56:15.089Z,0.17
2019-05-10T13:58:42.010Z,0.20
2019-05-10T14:01:13.324Z,0.20
2019-05-10T14:03:45.161Z,0.25
2019-05-10T14:06:06.047Z,0.30
2019-05-10T14:08:32.883Z,0.37
2019-05-10T14:11:01.373Z,0.53
2019-05-10T14:13:28.763Z,0.30
2019-05-10T14:15:55.646Z,0.30
2019-05-10T14:18:22.396Z,0.25
2019-05-10T14:20:49.290Z,0.30
2019-05-10T14:23:17.978Z,0.10
2019-05-10T14:25:45.106Z,0.10
2019-05-10T14:28:15.609Z,0.15
2019-05-10T14:30:40.643Z,0.10
2019-05-10T14:33:08.678Z,0.13
2019-05-10T14:35:36.132Z,0.60
2019-05-10T14:38:08.713Z,0.95
2019-05-10T14:40:31.652Z,0.50
2019-05-10T14:42:59.558Z,0.20
2019-05-10T14:45:26.474Z,0.20
2019-05-10T14:47:53.454Z,0.57
2019-05-10T14:50:26.122Z,0.30
2019-05-10T14:52:48.832Z,0.30
2019-05-10T14:55:15.674Z,0.10
2019-05-10T14:57:42.538Z,0.40
2019-05-10T15:00:09.223Z,0.20
2019-05-10T15:02:36.069Z,0.23
2019-05-10T15:05:08.983Z,0.40
2019-05-10T15:07:33.408Z,0.30
2019-05-10T15:10:02.237Z,0.17
2019-05-10T15:12:28.889Z,0.20
2019-05-10T15:14:56.110Z,0.20
2019-05-10T15:17:22.961Z,0.30
2019-05-10T15:19:57.314Z,0.20
2019-05-10T15:22:22.852Z,0.20
2019-05-10T15:24:47.209Z,1.15
2019-05-10T15:27:16.250Z,1.20
2019-05-10T15:29:42.620Z,0.50
2019-05-10T15:32:09.365Z,0.50
2019-05-10T15:34:36.140Z,0.82
2019-05-10T15:37:09.101Z,0.55
2019-05-10T15:39:31.401Z,0.70
2019-05-10T15:41:59.124Z,0.55
2019-05-10T15:44:31.414Z,0.30
2019-05-10T15:46:56.398Z,0.50
2019-05-10T15:49:24.475Z,0.40
2019-05-10T15:51:56.802Z,0.30
2019-05-10T15:54:20.003Z,0.40
2019-05-10T15:56:46.867Z,0.23
2019-05-10T15:59:19.410Z,0.50
2019-05-10T16:01:45.434Z,0.50
2019-05-10T16:04:10.914Z,0.78
2019-05-10T16:06:39.446Z,0.60
2019-05-10T16:09:16.927Z,0.40
2019-05-10T16:11:35.596Z,0.62
2019-05-10T16:14:04.623Z,0.65
2019-05-10T16:16:37.223Z,0.40
2019-05-10T16:19:00.169Z,0.53
2019-05-10T16:21:26.964Z,0.45
2019-05-10T16:23:53.635Z,0.40
2019-05-10T16:26:22.804Z,0.50
2019-05-10T16:28:56.549Z,0.47
2019-05-10T16:31:17.546Z,0.62
2019-05-10T16:33:48.366Z,0.70
2019-05-10T16:36:12.988Z,0.42
2019-05-10T16:38:39.858Z,0.40
2019-05-10T16:41:06.541Z,0.30
2019-05-10T16:43:33.384Z,0.40
2019-05-10T16:46:00.139Z,0.50
2019-05-10T16:48:28.379Z,0.57
2019-05-10T16:50:55.311Z,0.62
2019-05-10T16:53:22.084Z,0.53
2019-05-10T16:55:48.891Z,0.65
2019-05-10T16:58:17.966Z,0.40
2019-05-10T17:00:46.355Z,0.50
2019-05-10T17:03:13.103Z,0.35
2019-05-10T17:05:53.077Z,0.40
2019-05-10T17:08:11.023Z,0.45
2019-05-10T17:10:37.759Z,0.40
2019-05-10T17:13:06.534Z,0.40
2019-05-10T17:15:33.914Z,0.35
2019-05-10T17:18:01.783Z,0.42
2019-05-10T17:20:28.496Z,0.53
2019-05-10T17:23:01.503Z,0.30
2019-05-10T17:25:23.956Z,0.40
2019-05-10T17:27:57.521Z,0.40
2019-05-10T17:30:21.649Z,0.40
2019-05-10T17:32:48.329Z,0.30
2019-05-10T17:35:15.199Z,0.30
2019-05-10T17:37:42.003Z,0.60
2019-05-10T17:40:12.062Z,0.60
2019-05-10T17:42:41.161Z,0.50
2019-05-10T17:45:07.473Z,0.70
2019-05-10T17:47:34.436Z,0.70
2019-05-10T17:50:01.068Z,0.70
2019-05-10T17:52:27.919Z,0.70
2019-05-10T17:54:55.771Z,0.80
2019-05-10T17:57:22.576Z,0.88
2019-05-10T17:59:52.807Z,0.90
2019-05-10T18:02:18.114Z,0.90
2019-05-10T18:04:45.014Z,0.70
2019-05-10T18:07:11.606Z,0.90
2019-05-10T18:09:38.390Z,0.98
2019-05-10T18:12:05.602Z,1.00
2019-05-10T18:14:32.414Z,0.72
2019-05-10T18:16:59.101Z,0.72
2019-05-10T18:19:26.556Z,1.05
2019-05-10T18:21:54.926Z,1.15
2019-05-10T18:24:22.450Z,1.45
2019-05-10T18:26:49.229Z,1.32
2019-05-10T18:29:16.024Z,0.85
2019-05-10T18:31:54.631Z,0.70
2019-05-10T18:34:11.413Z,0.90
2019-05-10T18:36:50.990Z,0.65
2019-05-10T18:39:09.114Z,0.50
2019-05-10T18:41:35.973Z,0.70
2019-05-10T18:44:03.045Z,0.50
2019-05-10T18:46:29.936Z,0.50
2019-05-10T18:48:56.776Z,0.70
2019-05-10T18:51:24.337Z,0.70
2019-05-10T18:53:52.178Z,0.80
2019-05-10T18:56:19.084Z,0.90
2019-05-10T18:58:45.931Z,0.75
2019-05-10T19:01:12.703Z,0.62
2019-05-10T19:03:39.486Z,0.90
2019-05-10T19:06:11.162Z,0.68
2019-05-10T19:08:36.056Z,0.90
2019-05-10T19:11:03.920Z,0.70
2019-05-10T19:13:34.199Z,0.78
2019-05-10T19:15:59.909Z,0.82
2019-05-10T19:18:26.699Z,0.78
2019-05-10T19:20:55.148Z,0.60
2019-05-10T19:23:22.041Z,0.80
2019-05-10T19:25:51.868Z,0.80
2019-05-10T19:28:21.042Z,1.07
2019-05-10T19:30:46.374Z,1.00
2019-05-10T19:33:13.158Z,1.42
2019-05-10T19:35:39.900Z,1.07
2019-05-10T19:38:06.786Z,1.35
2019-05-10T19:40:33.749Z,1.30
2019-05-10T19:43:00.501Z,1.17
2019-05-10T19:45:30.964Z,1.10
2019-05-10T19:47:57.188Z,1.10
2019-05-10T19:50:30.332Z,1.20
2019-05-10T19:52:52.709Z,1.05
2019-05-10T19:55:21.693Z,1.32
2019-05-10T19:57:49.626Z,1.20
2019-05-10T20:00:16.827Z,1.20
2019-05-10T20:02:43.510Z,1.15
2019-05-10T20:05:10.288Z,1.05
2019-05-10T20:07:45.800Z,1.00
2019-05-10T20:10:07.675Z,1.00
2019-05-10T20:12:34.186Z,1.00
2019-05-10T20:15:01.024Z,0.93
2019-05-10T20:17:27.911Z,1.42
2019-05-10T20:19:54.748Z,1.37
2019-05-10T20:22:21.628Z,1.10
2019-05-10T20:24:48.513Z,1.07
2019-05-10T20:27:15.400Z,0.95
2019-05-10T20:29:42.266Z,0.95
2019-05-10T20:32:10.221Z,0.98
2019-05-10T20:34:37.010Z,1.60
2019-05-10T20:37:03.796Z,1.10
2019-05-10T20:39:30.553Z,1.22
2019-05-10T20:41:57.524Z,1.35
2019-05-10T20:44:24.468Z,1.30
2019-05-10T20:46:51.262Z,1.17
2019-05-10T20:49:18.211Z,2.37
2019-05-10T20:51:45.966Z,1.40
2019-05-10T20:54:12.733Z,1.62
2019-05-10T20:56:39.529Z,1.77
2019-05-10T20:59:06.238Z,1.62
2019-05-10T21:01:33.022Z,1.80
2019-05-10T21:03:59.860Z,1.40
2019-05-10T21:06:26.671Z,1.15
2019-05-10T21:08:53.458Z,1.10
2019-05-10T21:11:20.232Z,1.50
2019-05-10T21:13:47.023Z,1.40
2019-05-10T21:16:13.669Z,1.62
2019-05-10T21:18:40.546Z,1.70
2019-05-10T21:21:07.389Z,1.27
2019-05-10T21:23:34.140Z,1.30
2019-05-10T21:26:00.905Z,1.20
2019-05-10T21:28:29.895Z,1.35
2019-05-10T21:30:56.585Z,1.25
2019-05-10T21:33:23.351Z,1.47
2019-05-10T21:35:50.283Z,1.00
2019-05-10T21:38:31.631Z,1.10
2019-05-10T21:40:45.724Z,1.00
2019-05-10T21:43:12.733Z,1.10
2019-05-10T21:45:39.524Z,1.00
2019-05-10T21:48:06.370Z,0.93
2019-05-10T21:50:33.196Z,1.00
2019-05-10T21:53:00.001Z,0.90
2019-05-10T21:55:26.727Z,1.00
2019-05-10T21:57:53.518Z,0.98
2019-05-10T22:00:24.124Z,1.12
2019-05-10T22:02:52.851Z,1.12
2019-05-10T22:05:19.792Z,1.05
2019-05-10T22:07:46.763Z,1.10
2019-05-10T22:10:14.527Z,0.80
2019-05-10T22:12:41.473Z,1.42
2019-05-10T22:15:08.234Z,1.07
2019-05-10T22:17:35.478Z,1.10
2019-05-10T22:20:05.968Z,1.05
2019-05-10T22:22:32.758Z,1.10
2019-05-10T22:24:59.577Z,1.10
2019-05-10T22:27:26.316Z,1.30
2019-05-10T22:29:53.174Z,1.00
2019-05-10T22:32:20.342Z,0.88
2019-05-10T22:34:47.091Z,1.25
2019-05-10T22:37:13.778Z,1.10
2019-05-10T22:39:40.635Z,1.00
2019-05-10T22:42:07.392Z,1.12
2019-05-10T22:44:34.051Z,0.90
2019-05-10T22:47:00.870Z,1.15
2019-05-10T22:49:27.529Z,0.80
2019-05-10T22:51:54.280Z,0.90
2019-05-10T22:54:21.201Z,1.00
2019-05-10T22:56:47.984Z,1.00
2019-05-10T22:59:14.668Z,1.07
2019-05-10T23:01:41.447Z,0.90
2019-05-10T23:04:08.321Z,1.02
2019-05-10T23:06:35.269Z,0.93
2019-05-10T23:09:02.442Z,0.90
2019-05-10T23:11:30.269Z,0.90
2019-05-10T23:13:56.993Z,1.02
2019-05-10T23:16:23.793Z,1.10
2019-05-10T23:18:50.583Z,0.90
2019-05-10T23:21:17.364Z,1.10
2019-05-10T23:23:44.426Z,1.02
2019-05-10T23:26:11.253Z,0.90
2019-05-10T23:28:50.047Z,1.10
2019-05-10T23:32:12.801Z,0.93
2019-05-10T23:34:08.627Z,0.68
2019-05-10T23:58:46.362Z,1.17
